sensor_id;sensor_type;location;lat;lon;timestamp;P1;durP1;ratioP1;P2;durP2;ratioP2
20232;SDS011;37438;55.674;13.074;2022-09-29T00:00:35;0.20;;;0.10;;
20232;SDS011;37438;55.674;13.074;2022-09-29T00:03:39;0.47;;;0.20;;
20232;SDS011;37438;55.674;13.074;2022-09-29T00:06:43;0.40;;;0.20;;
20232;SDS011;37438;55.674;13.074;2022-09-29T00:09:48;0.43;;;0.43;;
20232;SDS011;37438;55.674;13.074;2022-09-29T00:12:53;1.08;;;0.55;;
20232;SDS011;37438;55.674;13.074;2022-09-29T00:15:58;1.08;;;0.30;;
20232;SDS011;37438;55.674;13.074;2022-09-29T00:19:04;2.65;;;0.32;;
20232;SDS011;37438;55.674;13.074;2022-09-29T00:22:09;0.75;;;0.35;;
20232;SDS011;37438;55.674;13.074;2022-09-29T00:25:13;0.50;;;0.35;;
20232;SDS011;37438;55.674;13.074;2022-09-29T00:28:17;2.45;;;0.38;;
20232;SDS011;37438;55.674;13.074;2022-09-29T00:31:23;3.13;;;0.30;;
20232;SDS011;37438;55.674;13.074;2022-09-29T00:34:29;0.65;;;0.10;;
20232;SDS011;37438;55.674;13.074;2022-09-29T00:37:33;0.25;;;0.25;;
20232;SDS011;37438;55.674;13.074;2022-09-29T00:40:38;1.10;;;0.30;;
20232;SDS011;37438;55.674;13.074;2022-09-29T00:43:47;0.10;;;0.10;;
20232;SDS011;37438;55.674;13.074;2022-09-29T00:47:03;2.10;;;0.20;;
20232;SDS011;37438;55.674;13.074;2022-09-29T00:53:31;0.20;;;0.20;;
20232;SDS011;37438;55.674;13.074;2022-09-29T00:56:37;2.50;;;0.40;;
20232;SDS011;37438;55.674;13.074;2022-09-29T01:03:09;1.45;;;0.47;;
20232;SDS011;37438;55.674;13.074;2022-09-29T01:09:33;0.17;;;0.17;;
20232;SDS011;37438;55.674;13.074;2022-09-29T01:12:40;0.60;;;0.30;;
20232;SDS011;37438;55.674;13.074;2022-09-29T01:15:45;0.47;;;0.40;;
20232;SDS011;37438;55.674;13.074;2022-09-29T01:18:50;1.10;;;0.28;;
20232;SDS011;37438;55.674;13.074;2022-09-29T01:21:58;0.40;;;0.40;;
20232;SDS011;37438;55.674;13.074;2022-09-29T01:39:13;0.10;;;0.10;;
20232;SDS011;37438;55.674;13.074;2022-09-29T01:46:08;5.05;;;1.00;;
20232;SDS011;37438;55.674;13.074;2022-09-29T01:49:18;0.22;;;0.10;;
20232;SDS011;37438;55.674;13.074;2022-09-29T01:52:25;1.60;;;0.55;;
20232;SDS011;37438;55.674;13.074;2022-09-29T01:55:36;0.20;;;0.20;;
20232;SDS011;37438;55.674;13.074;2022-09-29T01:59:07;0.85;;;0.30;;
20232;SDS011;37438;55.674;13.074;2022-09-29T02:02:24;0.75;;;0.20;;
20232;SDS011;37438;55.674;13.074;2022-09-29T02:05:45;2.13;;;0.38;;
20232;SDS011;37438;55.674;13.074;2022-09-29T02:08:55;0.15;;;0.10;;
20232;SDS011;37438;55.674;13.074;2022-09-29T02:12:03;2.80;;;0.40;;
20232;SDS011;37438;55.674;13.074;2022-09-29T02:15:11;1.67;;;0.30;;
20232;SDS011;37438;55.674;13.074;2022-09-29T02:18:22;1.73;;;0.38;;
20232;SDS011;37438;55.674;13.074;2022-09-29T02:21:30;0.10;;;0.10;;
20232;SDS011;37438;55.674;13.074;2022-09-29T02:24:34;1.92;;;0.20;;
20232;SDS011;37438;55.674;13.074;2022-09-29T02:27:39;1.27;;;0.35;;
20232;SDS011;37438;55.674;13.074;2022-09-29T02:30:43;1.13;;;0.20;;
20232;SDS011;37438;55.674;13.074;2022-09-29T02:33:48;1.75;;;0.30;;
20232;SDS011;37438;55.674;13.074;2022-09-29T02:40:08;2.17;;;0.60;;
20232;SDS011;37438;55.674;13.074;2022-09-29T02:43:38;0.38;;;0.20;;
20232;SDS011;37438;55.674;13.074;2022-09-29T02:53:42;5.63;;;0.32;;
20232;SDS011;37438;55.674;13.074;2022-09-29T02:56:51;0.80;;;0.30;;
20232;SDS011;37438;55.674;13.074;2022-09-29T03:00:12;0.20;;;0.20;;
20232;SDS011;37438;55.674;13.074;2022-09-29T03:03:18;0.08;;;0.08;;
20232;SDS011;37438;55.674;13.074;2022-09-29T03:06:23;0.90;;;0.20;;
20232;SDS011;37438;55.674;13.074;2022-09-29T03:09:27;0.20;;;0.20;;
20232;SDS011;37438;55.674;13.074;2022-09-29T03:12:32;2.13;;;0.20;;
20232;SDS011;37438;55.674;13.074;2022-09-29T03:15:37;0.80;;;0.45;;
20232;SDS011;37438;55.674;13.074;2022-09-29T03:18:41;0.90;;;0.37;;
20232;SDS011;37438;55.674;13.074;2022-09-29T03:21:46;0.25;;;0.10;;
20232;SDS011;37438;55.674;13.074;2022-09-29T03:24:51;0.20;;;0.20;;
20232;SDS011;37438;55.674;13.074;2022-09-29T03:27:55;0.90;;;0.25;;
20232;SDS011;37438;55.674;13.074;2022-09-29T03:31:06;0.20;;;0.20;;
20232;SDS011;37438;55.674;13.074;2022-09-29T03:34:12;0.55;;;0.30;;
20232;SDS011;37438;55.674;13.074;2022-09-29T03:37:16;0.17;;;0.10;;
20232;SDS011;37438;55.674;13.074;2022-09-29T03:40:21;0.38;;;0.20;;
20232;SDS011;37438;55.674;13.074;2022-09-29T03:43:25;0.10;;;0.10;;
20232;SDS011;37438;55.674;13.074;2022-09-29T03:49:34;0.57;;;0.20;;
20232;SDS011;37438;55.674;13.074;2022-09-29T03:52:39;1.35;;;0.20;;
20232;SDS011;37438;55.674;13.074;2022-09-29T03:55:47;0.38;;;0.30;;
20232;SDS011;37438;55.674;13.074;2022-09-29T03:58:52;0.40;;;0.10;;
20232;SDS011;37438;55.674;13.074;2022-09-29T04:01:56;1.08;;;0.10;;
20232;SDS011;37438;55.674;13.074;2022-09-29T04:05:01;0.88;;;0.20;;
20232;SDS011;37438;55.674;13.074;2022-09-29T04:08:05;3.08;;;0.38;;
20232;SDS011;37438;55.674;13.074;2022-09-29T04:11:11;1.17;;;0.10;;
20232;SDS011;37438;55.674;13.074;2022-09-29T04:14:15;0.50;;;0.15;;
20232;SDS011;37438;55.674;13.074;2022-09-29T04:17:19;1.17;;;0.32;;
20232;SDS011;37438;55.674;13.074;2022-09-29T04:23:29;0.55;;;0.45;;
20232;SDS011;37438;55.674;13.074;2022-09-29T04:26:33;0.80;;;0.30;;
20232;SDS011;37438;55.674;13.074;2022-09-29T04:29:38;0.60;;;0.30;;
20232;SDS011;37438;55.674;13.074;2022-09-29T04:32:42;3.00;;;0.43;;
20232;SDS011;37438;55.674;13.074;2022-09-29T04:35:47;0.88;;;0.60;;
20232;SDS011;37438;55.674;13.074;2022-09-29T04:38:51;3.30;;;0.40;;
20232;SDS011;37438;55.674;13.074;2022-09-29T04:41:56;3.90;;;0.52;;
20232;SDS011;37438;55.674;13.074;2022-09-29T04:45:00;1.02;;;0.38;;
20232;SDS011;37438;55.674;13.074;2022-09-29T04:48:05;0.45;;;0.40;;
20232;SDS011;37438;55.674;13.074;2022-09-29T04:54:14;2.70;;;1.02;;
20232;SDS011;37438;55.674;13.074;2022-09-29T04:57:18;0.20;;;0.10;;
20232;SDS011;37438;55.674;13.074;2022-09-29T05:00:23;2.05;;;0.68;;
20232;SDS011;37438;55.674;13.074;2022-09-29T05:03:27;1.85;;;0.55;;
20232;SDS011;37438;55.674;13.074;2022-09-29T05:06:32;2.83;;;0.60;;
20232;SDS011;37438;55.674;13.074;2022-09-29T05:09:36;3.75;;;0.93;;
20232;SDS011;37438;55.674;13.074;2022-09-29T05:12:40;3.20;;;0.60;;
20232;SDS011;37438;55.674;13.074;2022-09-29T05:15:54;5.60;;;1.02;;
20232;SDS011;37438;55.674;13.074;2022-09-29T05:18:59;0.45;;;0.35;;
20232;SDS011;37438;55.674;13.074;2022-09-29T05:22:04;3.83;;;1.15;;
20232;SDS011;37438;55.674;13.074;2022-09-29T05:25:08;5.63;;;0.65;;
20232;SDS011;37438;55.674;13.074;2022-09-29T05:28:13;2.70;;;0.75;;
20232;SDS011;37438;55.674;13.074;2022-09-29T05:31:17;2.28;;;0.93;;
20232;SDS011;37438;55.674;13.074;2022-09-29T05:34:22;1.48;;;0.52;;
20232;SDS011;37438;55.674;13.074;2022-09-29T05:37:26;2.65;;;0.77;;
20232;SDS011;37438;55.674;13.074;2022-09-29T05:40:31;1.65;;;0.52;;
20232;SDS011;37438;55.674;13.074;2022-09-29T05:43:35;1.00;;;0.30;;
20232;SDS011;37438;55.674;13.074;2022-09-29T05:46:40;0.77;;;0.20;;
20232;SDS011;37438;55.674;13.074;2022-09-29T05:49:44;6.70;;;0.50;;
20232;SDS011;37438;55.674;13.074;2022-09-29T05:52:48;0.93;;;0.25;;
20232;SDS011;37438;55.674;13.074;2022-09-29T05:55:53;0.25;;;0.20;;
20232;SDS011;37438;55.674;13.074;2022-09-29T05:58:58;1.65;;;0.57;;
20232;SDS011;37438;55.674;13.074;2022-09-29T06:02:04;0.88;;;0.10;;
20232;SDS011;37438;55.674;13.074;2022-09-29T06:05:09;1.17;;;0.17;;
20232;SDS011;37438;55.674;13.074;2022-09-29T06:08:13;1.75;;;0.10;;
20232;SDS011;37438;55.674;13.074;2022-09-29T06:11:19;1.65;;;0.93;;
20232;SDS011;37438;55.674;13.074;2022-09-29T06:14:26;1.35;;;0.40;;
20232;SDS011;37438;55.674;13.074;2022-09-29T06:17:30;0.20;;;0.00;;
20232;SDS011;37438;55.674;13.074;2022-09-29T06:20:34;2.28;;;0.10;;
20232;SDS011;37438;55.674;13.074;2022-09-29T06:23:41;1.00;;;0.63;;
20232;SDS011;37438;55.674;13.074;2022-09-29T06:26:46;0.75;;;0.30;;
20232;SDS011;37438;55.674;13.074;2022-09-29T06:29:50;1.13;;;0.10;;
20232;SDS011;37438;55.674;13.074;2022-09-29T06:32:54;0.10;;;0.05;;
20232;SDS011;37438;55.674;13.074;2022-09-29T06:36:00;0.98;;;0.00;;
20232;SDS011;37438;55.674;13.074;2022-09-29T06:39:26;1.75;;;0.10;;
20232;SDS011;37438;55.674;13.074;2022-09-29T06:42:31;3.05;;;0.20;;
20232;SDS011;37438;55.674;13.074;2022-09-29T06:45:35;0.20;;;0.15;;
20232;SDS011;37438;55.674;13.074;2022-09-29T06:48:40;0.00;;;0.00;;
20232;SDS011;37438;55.674;13.074;2022-09-29T06:51:45;0.75;;;0.15;;
20232;SDS011;37438;55.674;13.074;2022-09-29T06:54:49;1.60;;;0.40;;
20232;SDS011;37438;55.674;13.074;2022-09-29T06:57:53;0.40;;;0.10;;
20232;SDS011;37438;55.674;13.074;2022-09-29T07:01:02;0.55;;;0.30;;
20232;SDS011;37438;55.674;13.074;2022-09-29T07:04:08;1.73;;;0.10;;
20232;SDS011;37438;55.674;13.074;2022-09-29T07:07:13;0.30;;;0.10;;
20232;SDS011;37438;55.674;13.074;2022-09-29T07:10:18;6.72;;;1.20;;
20232;SDS011;37438;55.674;13.074;2022-09-29T07:13:24;1.88;;;0.10;;
20232;SDS011;37438;55.674;13.074;2022-09-29T07:16:29;0.55;;;0.10;;
20232;SDS011;37438;55.674;13.074;2022-09-29T07:19:34;0.68;;;0.10;;
20232;SDS011;37438;55.674;13.074;2022-09-29T07:22:38;0.98;;;0.10;;
20232;SDS011;37438;55.674;13.074;2022-09-29T07:25:44;0.57;;;0.22;;
20232;SDS011;37438;55.674;13.074;2022-09-29T07:28:55;0.85;;;0.10;;
20232;SDS011;37438;55.674;13.074;2022-09-29T07:31:59;0.75;;;0.20;;
20232;SDS011;37438;55.674;13.074;2022-09-29T07:35:04;1.38;;;0.10;;
20232;SDS011;37438;55.674;13.074;2022-09-29T07:38:10;0.22;;;0.22;;
20232;SDS011;37438;55.674;13.074;2022-09-29T07:41:14;0.98;;;0.30;;
20232;SDS011;37438;55.674;13.074;2022-09-29T07:44:19;0.05;;;0.05;;
20232;SDS011;37438;55.674;13.074;2022-09-29T07:47:24;0.20;;;0.20;;
20232;SDS011;37438;55.674;13.074;2022-09-29T07:50:29;2.22;;;0.57;;
20232;SDS011;37438;55.674;13.074;2022-09-29T07:53:35;0.80;;;0.10;;
20232;SDS011;37438;55.674;13.074;2022-09-29T07:59:44;0.08;;;0.08;;
20232;SDS011;37438;55.674;13.074;2022-09-29T08:03:03;2.55;;;0.38;;
20232;SDS011;37438;55.674;13.074;2022-09-29T08:06:09;0.40;;;0.20;;
20232;SDS011;37438;55.674;13.074;2022-09-29T08:09:14;0.25;;;0.22;;
20232;SDS011;37438;55.674;13.074;2022-09-29T08:12:18;0.65;;;0.10;;
20232;SDS011;37438;55.674;13.074;2022-09-29T08:15:23;0.55;;;0.05;;
20232;SDS011;37438;55.674;13.074;2022-09-29T08:21:32;2.85;;;0.47;;
20232;SDS011;37438;55.674;13.074;2022-09-29T08:24:40;1.65;;;0.20;;
20232;SDS011;37438;55.674;13.074;2022-09-29T08:27:45;2.83;;;1.15;;
20232;SDS011;37438;55.674;13.074;2022-09-29T08:31:11;3.05;;;0.20;;
20232;SDS011;37438;55.674;13.074;2022-09-29T08:34:17;1.35;;;0.20;;
20232;SDS011;37438;55.674;13.074;2022-09-29T08:37:21;0.22;;;0.00;;
20232;SDS011;37438;55.674;13.074;2022-09-29T08:40:29;2.40;;;0.25;;
20232;SDS011;37438;55.674;13.074;2022-09-29T08:43:38;1.17;;;0.10;;
20232;SDS011;37438;55.674;13.074;2022-09-29T08:50:02;3.08;;;0.20;;
20232;SDS011;37438;55.674;13.074;2022-09-29T08:53:15;3.45;;;0.32;;
20232;SDS011;37438;55.674;13.074;2022-09-29T08:56:31;2.28;;;0.10;;
20232;SDS011;37438;55.674;13.074;2022-09-29T08:59:36;1.23;;;0.65;;
20232;SDS011;37438;55.674;13.074;2022-09-29T09:25:37;0.95;;;0.20;;
20232;SDS011;37438;55.674;13.074;2022-09-29T09:28:48;0.85;;;0.15;;
20232;SDS011;37438;55.674;13.074;2022-09-29T09:31:58;0.45;;;0.10;;
20232;SDS011;37438;55.674;13.074;2022-09-29T09:38:33;1.52;;;0.00;;
20232;SDS011;37438;55.674;13.074;2022-09-29T09:42:00;1.48;;;0.10;;
20232;SDS011;37438;55.674;13.074;2022-09-29T09:45:16;1.85;;;0.10;;
20232;SDS011;37438;55.674;13.074;2022-09-29T09:48:35;1.85;;;0.10;;
20232;SDS011;37438;55.674;13.074;2022-09-29T09:51:52;1.98;;;0.20;;
20232;SDS011;37438;55.674;13.074;2022-09-29T09:55:22;0.10;;;0.10;;
20232;SDS011;37438;55.674;13.074;2022-09-29T10:01:35;0.00;;;0.00;;
20232;SDS011;37438;55.674;13.074;2022-09-29T10:04:40;1.00;;;0.15;;
20232;SDS011;37438;55.674;13.074;2022-09-29T10:07:44;1.35;;;0.10;;
20232;SDS011;37438;55.674;13.074;2022-09-29T10:10:52;1.17;;;0.00;;
20232;SDS011;37438;55.674;13.074;2022-09-29T10:14:21;1.15;;;0.05;;
20232;SDS011;37438;55.674;13.074;2022-09-29T10:17:30;0.52;;;0.10;;
20232;SDS011;37438;55.674;13.074;2022-09-29T10:20:42;0.70;;;0.10;;
20232;SDS011;37438;55.674;13.074;2022-09-29T10:23:49;3.80;;;0.22;;
20232;SDS011;37438;55.674;13.074;2022-09-29T10:26:56;0.30;;;0.30;;
20232;SDS011;37438;55.674;13.074;2022-09-29T10:30:04;0.47;;;0.00;;
20232;SDS011;37438;55.674;13.074;2022-09-29T10:33:21;0.00;;;0.00;;
20232;SDS011;37438;55.674;13.074;2022-09-29T10:36:30;0.32;;;0.03;;
20232;SDS011;37438;55.674;13.074;2022-09-29T10:42:46;1.75;;;0.00;;
20232;SDS011;37438;55.674;13.074;2022-09-29T10:45:53;0.80;;;0.05;;
20232;SDS011;37438;55.674;13.074;2022-09-29T10:49:09;0.60;;;0.10;;
20232;SDS011;37438;55.674;13.074;2022-09-29T10:52:25;2.20;;;0.32;;
20232;SDS011;37438;55.674;13.074;2022-09-29T10:55:32;0.05;;;0.05;;
20232;SDS011;37438;55.674;13.074;2022-09-29T10:58:39;0.08;;;0.00;;
20232;SDS011;37438;55.674;13.074;2022-09-29T11:02:00;0.10;;;0.10;;
20232;SDS011;37438;55.674;13.074;2022-09-29T11:05:29;0.73;;;0.05;;
20232;SDS011;37438;55.674;13.074;2022-09-29T11:08:30;0.63;;;0.10;;
20232;SDS011;37438;55.674;13.074;2022-09-29T11:11:38;2.22;;;0.05;;
20232;SDS011;37438;55.674;13.074;2022-09-29T11:15:00;1.17;;;0.00;;
20232;SDS011;37438;55.674;13.074;2022-09-29T11:18:16;0.03;;;0.00;;
20232;SDS011;37438;55.674;13.074;2022-09-29T11:45:09;0.50;;;0.00;;
20232;SDS011;37438;55.674;13.074;2022-09-29T11:48:33;0.88;;;0.00;;
20232;SDS011;37438;55.674;13.074;2022-09-29T11:55:27;1.27;;;0.17;;
20232;SDS011;37438;55.674;13.074;2022-09-29T12:09:14;2.55;;;0.00;;
20232;SDS011;37438;55.674;13.074;2022-09-29T12:15:59;0.80;;;0.32;;
20232;SDS011;37438;55.674;13.074;2022-09-29T12:19:24;0.75;;;0.00;;
20232;SDS011;37438;55.674;13.074;2022-09-29T12:22:31;2.10;;;0.05;;
20232;SDS011;37438;55.674;13.074;2022-09-29T12:25:57;1.63;;;0.20;;
20232;SDS011;37438;55.674;13.074;2022-09-29T12:29:21;0.00;;;0.00;;
20232;SDS011;37438;55.674;13.074;2022-09-29T12:32:39;0.55;;;0.08;;
20232;SDS011;37438;55.674;13.074;2022-09-29T12:35:49;0.73;;;0.10;;
20232;SDS011;37438;55.674;13.074;2022-09-29T12:39:26;0.10;;;0.00;;
20232;SDS011;37438;55.674;13.074;2022-09-29T12:53:01;1.90;;;0.10;;
20232;SDS011;37438;55.674;13.074;2022-09-29T12:56:23;0.35;;;0.35;;
20232;SDS011;37438;55.674;13.074;2022-09-29T13:27:47;0.00;;;0.00;;
20232;SDS011;37438;55.674;13.074;2022-09-29T13:30:54;0.98;;;0.00;;
20232;SDS011;37438;55.674;13.074;2022-09-29T13:34:02;0.30;;;0.10;;
20232;SDS011;37438;55.674;13.074;2022-09-29T13:37:18;0.10;;;0.10;;
20232;SDS011;37438;55.674;13.074;2022-09-29T13:40:25;1.55;;;0.15;;
20232;SDS011;37438;55.674;13.074;2022-09-29T13:46:54;1.08;;;0.20;;
20232;SDS011;37438;55.674;13.074;2022-09-29T13:53:41;2.88;;;0.10;;
20232;SDS011;37438;55.674;13.074;2022-09-29T13:56:47;3.33;;;0.20;;
20232;SDS011;37438;55.674;13.074;2022-09-29T14:03:01;0.75;;;0.08;;
20232;SDS011;37438;55.674;13.074;2022-09-29T14:09:45;0.10;;;0.10;;
20232;SDS011;37438;55.674;13.074;2022-09-29T14:13:38;2.28;;;0.10;;
20232;SDS011;37438;55.674;13.074;2022-09-29T14:26:52;0.55;;;0.10;;
20232;SDS011;37438;55.674;13.074;2022-09-29T14:33:18;1.25;;;0.32;;
20232;SDS011;37438;55.674;13.074;2022-09-29T14:36:32;4.15;;;0.28;;
20232;SDS011;37438;55.674;13.074;2022-09-29T14:42:42;1.85;;;0.20;;
20232;SDS011;37438;55.674;13.074;2022-09-29T14:49:43;1.35;;;0.10;;
20232;SDS011;37438;55.674;13.074;2022-09-29T14:53:12;3.70;;;0.68;;
20232;SDS011;37438;55.674;13.074;2022-09-29T14:56:34;0.63;;;0.10;;
20232;SDS011;37438;55.674;13.074;2022-09-29T15:00:07;1.90;;;0.50;;
20232;SDS011;37438;55.674;13.074;2022-09-29T15:03:26;0.10;;;0.08;;
20232;SDS011;37438;55.674;13.074;2022-09-29T15:06:47;0.32;;;0.20;;
20232;SDS011;37438;55.674;13.074;2022-09-29T15:09:57;1.88;;;0.32;;
20232;SDS011;37438;55.674;13.074;2022-09-29T15:16:43;0.57;;;0.32;;
20232;SDS011;37438;55.674;13.074;2022-09-29T15:20:17;2.78;;;0.63;;
20232;SDS011;37438;55.674;13.074;2022-09-29T15:27:12;1.88;;;0.45;;
20232;SDS011;37438;55.674;13.074;2022-09-29T15:30:19;2.90;;;0.93;;
20232;SDS011;37438;55.674;13.074;2022-09-29T15:33:25;1.38;;;0.40;;
20232;SDS011;37438;55.674;13.074;2022-09-29T15:36:36;0.38;;;0.25;;
20232;SDS011;37438;55.674;13.074;2022-09-29T15:39:44;2.08;;;0.25;;
20232;SDS011;37438;55.674;13.074;2022-09-29T15:42:52;1.65;;;0.28;;
20232;SDS011;37438;55.674;13.074;2022-09-29T15:46:02;1.35;;;0.30;;
20232;SDS011;37438;55.674;13.074;2022-09-29T15:49:37;0.20;;;0.20;;
20232;SDS011;37438;55.674;13.074;2022-09-29T15:52:54;0.30;;;0.28;;
20232;SDS011;37438;55.674;13.074;2022-09-29T15:59:03;5.57;;;1.13;;
20232;SDS011;37438;55.674;13.074;2022-09-29T16:02:34;0.82;;;0.20;;
20232;SDS011;37438;55.674;13.074;2022-09-29T16:05:39;0.50;;;0.20;;
20232;SDS011;37438;55.674;13.074;2022-09-29T16:08:49;0.90;;;0.63;;
20232;SDS011;37438;55.674;13.074;2022-09-29T16:11:58;2.25;;;0.90;;
20232;SDS011;37438;55.674;13.074;2022-09-29T16:15:10;1.80;;;0.52;;
20232;SDS011;37438;55.674;13.074;2022-09-29T16:21:34;3.63;;;0.77;;
20232;SDS011;37438;55.674;13.074;2022-09-29T16:24:49;2.70;;;0.28;;
20232;SDS011;37438;55.674;13.074;2022-09-29T16:28:24;2.25;;;1.00;;
20232;SDS011;37438;55.674;13.074;2022-09-29T16:31:30;1.75;;;0.70;;
20232;SDS011;37438;55.674;13.074;2022-09-29T16:34:35;4.28;;;1.83;;
20232;SDS011;37438;55.674;13.074;2022-09-29T16:37:40;1.67;;;1.00;;
20232;SDS011;37438;55.674;13.074;2022-09-29T16:40:44;0.80;;;0.60;;
20232;SDS011;37438;55.674;13.074;2022-09-29T16:43:49;1.75;;;0.85;;
20232;SDS011;37438;55.674;13.074;2022-09-29T16:50:18;1.55;;;1.20;;
20232;SDS011;37438;55.674;13.074;2022-09-29T16:53:33;1.30;;;1.20;;
20232;SDS011;37438;55.674;13.074;2022-09-29T16:56:38;2.10;;;1.90;;
20232;SDS011;37438;55.674;13.074;2022-09-29T16:59:44;2.88;;;0.80;;
20232;SDS011;37438;55.674;13.074;2022-09-29T17:02:55;1.08;;;0.82;;
20232;SDS011;37438;55.674;13.074;2022-09-29T17:06:00;3.25;;;0.70;;
20232;SDS011;37438;55.674;13.074;2022-09-29T17:09:09;0.95;;;0.82;;
20232;SDS011;37438;55.674;13.074;2022-09-29T17:12:19;3.72;;;0.98;;
20232;SDS011;37438;55.674;13.074;2022-09-29T17:15:25;2.90;;;1.08;;
20232;SDS011;37438;55.674;13.074;2022-09-29T17:18:29;3.72;;;0.90;;
20232;SDS011;37438;55.674;13.074;2022-09-29T17:21:35;3.67;;;1.20;;
20232;SDS011;37438;55.674;13.074;2022-09-29T17:24:39;1.80;;;0.98;;
20232;SDS011;37438;55.674;13.074;2022-09-29T17:27:44;3.03;;;1.08;;
20232;SDS011;37438;55.674;13.074;2022-09-29T17:31:07;0.88;;;0.88;;
20232;SDS011;37438;55.674;13.074;2022-09-29T17:34:15;1.23;;;0.95;;
20232;SDS011;37438;55.674;13.074;2022-09-29T17:37:19;1.75;;;1.10;;
20232;SDS011;37438;55.674;13.074;2022-09-29T17:40:25;2.97;;;1.17;;
20232;SDS011;37438;55.674;13.074;2022-09-29T17:43:36;2.38;;;1.00;;
20232;SDS011;37438;55.674;13.074;2022-09-29T17:46:41;3.75;;;1.00;;
20232;SDS011;37438;55.674;13.074;2022-09-29T17:49:45;1.30;;;0.52;;
20232;SDS011;37438;55.674;13.074;2022-09-29T17:52:53;1.88;;;0.80;;
20232;SDS011;37438;55.674;13.074;2022-09-29T17:55:57;2.85;;;0.88;;
20232;SDS011;37438;55.674;13.074;2022-09-29T17:59:02;4.03;;;0.80;;
20232;SDS011;37438;55.674;13.074;2022-09-29T18:02:10;0.75;;;0.75;;
20232;SDS011;37438;55.674;13.074;2022-09-29T18:05:16;0.93;;;0.63;;
20232;SDS011;37438;55.674;13.074;2022-09-29T18:08:27;1.25;;;0.88;;
20232;SDS011;37438;55.674;13.074;2022-09-29T18:11:34;1.30;;;0.88;;
20232;SDS011;37438;55.674;13.074;2022-09-29T18:14:38;3.70;;;1.10;;
20232;SDS011;37438;55.674;13.074;2022-09-29T18:17:43;2.42;;;0.70;;
20232;SDS011;37438;55.674;13.074;2022-09-29T18:20:48;1.00;;;0.60;;
20232;SDS011;37438;55.674;13.074;2022-09-29T18:23:53;1.98;;;0.93;;
20232;SDS011;37438;55.674;13.074;2022-09-29T18:26:58;2.40;;;0.60;;
20232;SDS011;37438;55.674;13.074;2022-09-29T18:30:06;0.70;;;0.70;;
20232;SDS011;37438;55.674;13.074;2022-09-29T18:33:21;5.38;;;0.75;;
20232;SDS011;37438;55.674;13.074;2022-09-29T18:36:25;3.00;;;0.43;;
20232;SDS011;37438;55.674;13.074;2022-09-29T18:42:38;3.80;;;0.77;;
20232;SDS011;37438;55.674;13.074;2022-09-29T18:45:49;0.88;;;0.60;;
20232;SDS011;37438;55.674;13.074;2022-09-29T18:48:54;3.85;;;0.60;;
20232;SDS011;37438;55.674;13.074;2022-09-29T18:51:58;2.63;;;2.03;;
20232;SDS011;37438;55.674;13.074;2022-09-29T18:55:03;5.65;;;0.65;;
20232;SDS011;37438;55.674;13.074;2022-09-29T18:58:12;0.47;;;0.43;;
20232;SDS011;37438;55.674;13.074;2022-09-29T19:01:22;1.27;;;0.30;;
20232;SDS011;37438;55.674;13.074;2022-09-29T19:04:31;0.73;;;0.30;;
20232;SDS011;37438;55.674;13.074;2022-09-29T19:07:35;6.93;;;0.82;;
20232;SDS011;37438;55.674;13.074;2022-09-29T19:10:39;0.30;;;0.30;;
20232;SDS011;37438;55.674;13.074;2022-09-29T19:13:49;0.47;;;0.43;;
20232;SDS011;37438;55.674;13.074;2022-09-29T19:16:57;1.05;;;0.70;;
20232;SDS011;37438;55.674;13.074;2022-09-29T19:20:01;4.75;;;0.50;;
20232;SDS011;37438;55.674;13.074;2022-09-29T19:23:05;1.02;;;0.80;;
20232;SDS011;37438;55.674;13.074;2022-09-29T19:26:12;0.75;;;0.75;;
20232;SDS011;37438;55.674;13.074;2022-09-29T19:29:19;1.05;;;0.75;;
20232;SDS011;37438;55.674;13.074;2022-09-29T19:32:23;0.70;;;0.60;;
20232;SDS011;37438;55.674;13.074;2022-09-29T19:35:27;0.55;;;0.50;;
20232;SDS011;37438;55.674;13.074;2022-09-29T19:38:32;2.70;;;1.13;;
20232;SDS011;37438;55.674;13.074;2022-09-29T19:41:37;2.03;;;1.27;;
20232;SDS011;37438;55.674;13.074;2022-09-29T19:44:42;3.08;;;1.48;;
20232;SDS011;37438;55.674;13.074;2022-09-29T19:47:46;1.10;;;0.95;;
20232;SDS011;37438;55.674;13.074;2022-09-29T19:50:56;1.40;;;1.08;;
20232;SDS011;37438;55.674;13.074;2022-09-29T19:54:20;1.33;;;1.08;;
20232;SDS011;37438;55.674;13.074;2022-09-29T19:57:27;1.83;;;0.98;;
20232;SDS011;37438;55.674;13.074;2022-09-29T20:00:32;3.17;;;1.23;;
20232;SDS011;37438;55.674;13.074;2022-09-29T20:03:36;1.88;;;1.40;;
20232;SDS011;37438;55.674;13.074;2022-09-29T20:06:41;5.70;;;2.20;;
20232;SDS011;37438;55.674;13.074;2022-09-29T20:09:46;3.75;;;2.30;;
20232;SDS011;37438;55.674;13.074;2022-09-29T20:12:50;4.72;;;3.03;;
20232;SDS011;37438;55.674;13.074;2022-09-29T20:15:55;4.38;;;2.03;;
20232;SDS011;37438;55.674;13.074;2022-09-29T20:18:59;5.07;;;2.40;;
20232;SDS011;37438;55.674;13.074;2022-09-29T20:22:03;3.30;;;2.43;;
20232;SDS011;37438;55.674;13.074;2022-09-29T20:25:08;7.53;;;3.00;;
20232;SDS011;37438;55.674;13.074;2022-09-29T20:28:14;5.43;;;2.72;;
20232;SDS011;37438;55.674;13.074;2022-09-29T20:31:20;6.63;;;2.65;;
20232;SDS011;37438;55.674;13.074;2022-09-29T20:34:25;9.13;;;4.35;;
20232;SDS011;37438;55.674;13.074;2022-09-29T20:37:30;6.60;;;3.70;;
20232;SDS011;37438;55.674;13.074;2022-09-29T20:40:34;8.73;;;4.70;;
20232;SDS011;37438;55.674;13.074;2022-09-29T20:43:38;8.55;;;3.00;;
20232;SDS011;37438;55.674;13.074;2022-09-29T20:46:46;7.85;;;4.20;;
20232;SDS011;37438;55.674;13.074;2022-09-29T20:49:50;7.05;;;3.83;;
20232;SDS011;37438;55.674;13.074;2022-09-29T20:52:59;6.13;;;3.55;;
20232;SDS011;37438;55.674;13.074;2022-09-29T20:56:04;8.38;;;4.18;;
20232;SDS011;37438;55.674;13.074;2022-09-29T20:59:14;10.02;;;5.35;;
20232;SDS011;37438;55.674;13.074;2022-09-29T21:02:23;8.63;;;4.85;;
20232;SDS011;37438;55.674;13.074;2022-09-29T21:05:28;8.15;;;3.35;;
20232;SDS011;37438;55.674;13.074;2022-09-29T21:08:32;1.52;;;0.80;;
20232;SDS011;37438;55.674;13.074;2022-09-29T21:11:37;0.80;;;0.57;;
20232;SDS011;37438;55.674;13.074;2022-09-29T21:14:43;1.42;;;0.75;;
20232;SDS011;37438;55.674;13.074;2022-09-29T21:17:47;2.65;;;0.70;;
20232;SDS011;37438;55.674;13.074;2022-09-29T21:21:11;0.65;;;0.65;;
20232;SDS011;37438;55.674;13.074;2022-09-29T21:24:15;3.00;;;1.08;;
20232;SDS011;37438;55.674;13.074;2022-09-29T21:27:20;2.63;;;1.92;;
20232;SDS011;37438;55.674;13.074;2022-09-29T21:30:24;2.45;;;1.98;;
20232;SDS011;37438;55.674;13.074;2022-09-29T21:33:29;3.25;;;2.95;;
20232;SDS011;37438;55.674;13.074;2022-09-29T21:36:34;2.35;;;1.83;;
20232;SDS011;37438;55.674;13.074;2022-09-29T21:39:39;1.00;;;1.00;;
20232;SDS011;37438;55.674;13.074;2022-09-29T21:42:44;2.53;;;1.27;;
20232;SDS011;37438;55.674;13.074;2022-09-29T21:45:49;2.75;;;1.30;;
20232;SDS011;37438;55.674;13.074;2022-09-29T21:48:58;3.28;;;1.38;;
20232;SDS011;37438;55.674;13.074;2022-09-29T21:52:03;1.50;;;1.40;;
20232;SDS011;37438;55.674;13.074;2022-09-29T21:55:08;2.42;;;1.55;;
20232;SDS011;37438;55.674;13.074;2022-09-29T21:58:13;1.23;;;1.02;;
20232;SDS011;37438;55.674;13.074;2022-09-29T22:01:17;2.10;;;1.23;;
20232;SDS011;37438;55.674;13.074;2022-09-29T22:04:22;2.55;;;1.30;;
20232;SDS011;37438;55.674;13.074;2022-09-29T22:07:27;1.23;;;1.10;;
20232;SDS011;37438;55.674;13.074;2022-09-29T22:10:31;2.80;;;1.20;;
20232;SDS011;37438;55.674;13.074;2022-09-29T22:13:37;5.50;;;1.40;;
20232;SDS011;37438;55.674;13.074;2022-09-29T22:16:43;1.90;;;1.60;;
20232;SDS011;37438;55.674;13.074;2022-09-29T22:19:47;3.17;;;1.40;;